Time;durP1;ratioP1;P1;durP2;ratioP2;P2;SDS_P1;SDS_P2;PMS_P1;PMS_P2;Temp;Humidity;BMP_temperature;BMP_pressure;BME280_temperature;BME280_humidity;BME280_pressure;Samples;Min_cycle;Max_cycle;Signal;HPM_P1;HPM_P2
2023/06/08 00:01:25;;;;;;;6.23;4.83;;;;;;;18.05;100.00;99968.28;5015309;28;20237;-61
2023/06/08 00:03:52;;;;;;;10.97;5.60;;;;;;;18.10;100.00;99972.25;5020041;28;20205;-61
2023/06/08 00:06:20;;;;;;;7.33;5.10;;;;;;;18.17;100.00;99965.53;5014278;28;20198;-61
2023/06/08 00:08:46;;;;;;;5.97;4.67;;;;;;;18.24;100.00;99969.25;5015067;28;20191;-61
2023/06/08 00:11:11;;;;;;;7.03;5.60;;;;;;;18.32;100.00;99971.16;5013524;28;20237;-60
2023/06/08 00:13:37;;;;;;;6.73;5.20;;;;;;;18.35;100.00;99971.72;5021455;28;20313;-60
2023/06/08 00:16:03;;;;;;;5.23;4.77;;;;;;;18.36;100.00;99969.94;5014193;28;20186;-60
2023/06/08 00:18:30;;;;;;;5.77;5.13;;;;;;;18.36;100.00;99970.75;5014717;28;20261;-60
2023/06/08 00:20:56;;;;;;;5.67;5.17;;;;;;;18.37;100.00;99972.41;5011580;28;20264;-60
2023/06/08 00:23:21;;;;;;;5.73;5.23;;;;;;;18.33;100.00;99973.66;5022958;28;20206;-60
2023/06/08 00:25:47;;;;;;;7.27;4.93;;;;;;;18.28;100.00;99970.63;5013805;28;20199;-60
2023/06/08 00:28:12;;;;;;;5.37;4.97;;;;;;;18.25;100.00;99975.28;5014680;28;20198;-60
2023/06/08 00:30:38;;;;;;;6.13;5.03;;;;;;;18.23;100.00;99973.66;4995979;28;20221;-60
2023/06/08 00:33:03;;;;;;;5.83;5.27;;;;;;;18.22;100.00;99969.41;5025446;28;20178;-60
2023/06/08 00:35:28;;;;;;;5.97;5.10;;;;;;;18.14;100.00;99965.84;5012709;28;20178;-60
2023/06/08 00:37:54;;;;;;;5.47;5.00;;;;;;;18.05;100.00;99965.69;5014519;28;20187;-60
2023/06/08 00:40:20;;;;;;;7.30;5.33;;;;;;;17.98;100.00;99967.16;5006067;28;20221;-60
2023/06/08 00:42:45;;;;;;;6.13;5.50;;;;;;;17.86;100.00;99969.06;5027337;28;20586;-60
2023/06/08 00:45:10;;;;;;;6.13;5.50;;;;;;;17.78;100.00;99965.47;5013895;28;20202;-60
2023/06/08 00:47:36;;;;;;;9.03;5.43;;;;;;;17.68;100.00;99968.88;5014435;28;20191;-60
2023/06/08 00:50:02;;;;;;;5.73;5.23;;;;;;;17.66;100.00;99969.97;5014146;28;20336;-60
2023/06/08 00:52:28;;;;;;;8.33;5.23;;;;;;;17.63;100.00;99967.63;5002695;28;20229;-60
2023/06/08 00:54:54;;;;;;;6.93;5.50;;;;;;;17.53;100.00;99965.00;5013761;28;20539;-61
2023/06/08 00:57:19;;;;;;;6.40;5.77;;;;;;;17.47;100.00;99958.53;5013425;28;20183;-60
2023/06/08 00:59:49;;;;;;;6.77;5.53;;;;;;;17.40;100.00;99953.06;5014132;28;20182;-60
2023/06/08 01:02:16;;;;;;;8.47;5.40;;;;;;;17.35;100.00;99957.00;5019031;28;20272;-60
2023/06/08 01:04:41;;;;;;;7.20;5.37;;;;;;;17.32;100.00;99959.88;5013940;28;20199;-61
2023/06/08 01:07:25;;;;;;;9.03;5.77;;;;;;;17.25;100.00;99957.78;5013554;28;20291;-60
2023/06/08 01:10:01;;;;;;;7.53;5.70;;;;;;;17.27;100.00;99955.88;5002887;28;20179;-60
2023/06/08 01:12:35;;;;;;;6.60;5.47;;;;;;;17.27;100.00;99955.88;5018812;28;20242;-60
2023/06/08 01:15:14;;;;;;;6.67;5.60;;;;;;;17.18;100.00;99955.81;5013413;28;20262;-60
2023/06/08 01:17:42;;;;;;;6.87;6.17;;;;;;;17.07;100.00;99947.16;5013590;28;20179;-61
2023/06/08 01:20:29;;;;;;;6.73;6.10;;;;;;;17.07;100.00;99951.53;5003175;28;20187;-60
2023/06/08 01:23:20;;;;;;;9.07;5.53;;;;;;;16.95;100.00;99950.78;5014650;28;20210;-60
2023/06/08 01:25:48;;;;;;;8.93;6.90;;;;;;;16.93;100.00;99939.69;5012847;28;20206;-60
2023/06/08 01:28:14;;;;;;;8.40;7.17;;;;;;;16.88;100.00;99947.03;5012015;28;20175;-60
2023/06/08 01:30:48;;;;;;;7.20;6.50;;;;;;;16.72;100.00;99950.06;5008023;28;20275;-60
2023/06/08 01:33:17;;;;;;;7.53;6.40;;;;;;;16.69;100.00;99956.34;5022763;28;20236;-61
2023/06/08 01:35:55;;;;;;;8.13;6.10;;;;;;;16.55;100.00;99960.09;5000628;28;20182;-60
2023/06/08 01:38:28;;;;;;;9.10;6.00;;;;;;;16.49;100.00;99958.00;5013247;28;20225;-60
2023/06/08 01:40:59;;;;;;;11.80;6.30;;;;;;;16.45;100.00;99954.00;5009825;28;20299;-60
2023/06/08 01:43:26;;;;;;;8.30;6.40;;;;;;;16.44;100.00;99955.75;5016049;28;20461;-60
2023/06/08 01:45:57;;;;;;;7.57;6.77;;;;;;;16.40;100.00;99959.56;4993414;28;20227;-60
2023/06/08 01:48:24;;;;;;;7.87;6.40;;;;;;;16.35;100.00;99955.69;5012709;28;20178;-61
2023/06/08 01:50:51;;;;;;;7.13;6.43;;;;;;;16.35;100.00;99953.09;4994849;28;20288;-60
2023/06/08 01:53:17;;;;;;;8.17;6.50;;;;;;;16.29;100.00;99954.44;5021775;28;20187;-60
2023/06/08 01:55:42;;;;;;;7.40;6.77;;;;;;;16.27;100.00;99961.50;5012700;28;20240;-62
2023/06/08 01:58:07;;;;;;;9.13;6.87;;;;;;;16.29;100.00;99952.66;5012949;28;20274;-60
2023/06/08 02:00:33;;;;;;;7.27;6.67;;;;;;;16.24;100.00;99952.19;5006800;28;20241;-61
2023/06/08 02:02:58;;;;;;;7.47;6.37;;;;;;;16.18;100.00;99952.69;5024106;28;20228;-60
2023/06/08 02:05:24;;;;;;;6.83;6.23;;;;;;;16.16;100.00;99953.75;5012336;28;20209;-60
2023/06/08 02:11:11;;;;;;;7.63;6.90;;;;;;;16.04;100.00;99955.56;4997953;28;20224;-60
2023/06/08 02:13:40;;;;;;;6.93;6.33;;;;;;;15.96;100.00;99951.84;5019090;28;20321;-61
2023/06/08 02:16:05;;;;;;;7.57;6.87;;;;;;;15.92;100.00;99945.22;5000539;28;20191;-60
2023/06/08 02:18:34;;;;;;;9.30;6.90;;;;;;;15.88;100.00;99951.59;5012426;28;20245;-60
2023/06/08 02:21:01;;;;;;;10.37;7.73;;;;;;;15.85;100.00;99953.63;4991802;28;20373;-60
2023/06/08 02:23:26;;;;;;;8.80;7.20;;;;;;;15.73;100.00;99953.59;5017200;28;20237;-60
2023/06/08 02:25:51;;;;;;;9.07;7.10;;;;;;;15.72;100.00;99954.56;5012107;28;20222;-60
2023/06/08 02:28:17;;;;;;;8.17;7.43;;;;;;;15.62;100.00;99962.22;5012118;28;20179;-60
2023/06/08 02:30:42;;;;;;;8.40;7.60;;;;;;;15.61;100.00;99959.75;5007267;28;20324;-60
2023/06/08 02:33:08;;;;;;;7.73;7.13;;;;;;;15.58;100.00;99965.16;5022680;28;20175;-60
2023/06/08 02:35:33;;;;;;;8.27;7.47;;;;;;;15.54;100.00;99962.00;5011712;28;20214;-60
2023/06/08 02:37:58;;;;;;;8.30;7.50;;;;;;;15.50;100.00;99958.00;5012543;28;20183;-60
2023/06/08 02:40:24;;;;;;;7.97;7.27;;;;;;;15.51;100.00;99959.66;5004663;28;20359;-60
2023/06/08 02:42:49;;;;;;;8.93;7.57;;;;;;;15.44;100.00;99961.06;5024695;28;20179;-61
2023/06/08 02:45:14;;;;;;;9.63;8.10;;;;;;;15.39;100.00;99960.59;5011265;28;20362;-61
2023/06/08 02:47:39;;;;;;;8.03;7.40;;;;;;;15.38;100.00;99953.75;5012177;28;20182;-61
2023/06/08 02:50:05;;;;;;;8.70;7.47;;;;;;;15.35;100.00;99957.41;5002477;28;20543;-59
2023/06/08 02:52:30;;;;;;;8.93;8.13;;;;;;;15.31;100.00;99961.19;5026683;28;20920;-60
2023/06/08 02:54:56;;;;;;;10.33;8.37;;;;;;;15.32;100.00;99958.47;5012066;28;20269;-60
2023/06/08 02:57:21;;;;;;;10.10;8.97;;;;;;;15.29;100.00;99953.53;5011757;28;20182;-60
2023/06/08 02:59:46;;;;;;;9.03;8.13;;;;;;;15.28;100.00;99961.41;5011828;28;20175;-60
2023/06/08 03:02:11;;;;;;;10.30;9.33;;;;;;;15.21;100.00;99957.63;4991174;28;20296;-60
2023/06/08 03:04:37;;;;;;;8.50;7.80;;;;;;;15.17;100.00;99963.06;5011706;28;20183;-60
2023/06/08 03:07:02;;;;;;;8.97;8.10;;;;;;;15.11;100.00;99954.94;5011376;28;20213;-59
2023/06/08 03:09:28;;;;;;;9.10;8.40;;;;;;;15.11;100.00;99957.53;5011786;28;20194;-60
2023/06/08 03:11:54;;;;;;;11.13;9.23;;;;;;;15.05;100.00;99952.81;5015888;28;20576;-60
2023/06/08 03:14:20;;;;;;;9.20;8.27;;;;;;;15.03;100.00;99957.28;5012572;28;20245;-60
2023/06/08 03:16:46;;;;;;;12.00;8.63;;;;;;;15.03;100.00;99962.47;5014328;28;20693;-60
2023/06/08 03:19:12;;;;;;;9.30;8.30;;;;;;;15.01;100.00;99967.75;5013765;28;20228;-60
2023/06/08 03:21:38;;;;;;;9.67;8.57;;;;;;;15.04;100.00;99964.13;5017972;28;20786;-59
2023/06/08 03:24:04;;;;;;;9.63;8.83;;;;;;;15.01;100.00;99955.63;5018836;28;20210;-60
2023/06/08 03:26:29;;;;;;;9.47;8.57;;;;;;;15.02;100.00;99956.47;5015188;28;20194;-60
2023/06/08 03:28:55;;;;;;;10.60;9.67;;;;;;;15.05;100.00;99958.81;5011459;28;20229;-60
2023/06/08 03:31:20;;;;;;;10.67;9.10;;;;;;;14.98;100.00;99957.63;4976795;28;20237;-59
2023/06/08 03:33:46;;;;;;;10.07;8.73;;;;;;;15.00;100.00;99950.56;5015181;28;20289;-59
2023/06/08 03:36:11;;;;;;;9.57;8.63;;;;;;;15.03;100.00;99957.28;5015470;28;20661;-62
2023/06/08 03:38:37;;;;;;;8.80;8.07;;;;;;;15.05;100.00;99951.03;5015532;28;20183;-60
2023/06/08 03:41:02;;;;;;;9.20;8.43;;;;;;;15.07;100.00;99953.50;5013307;28;20222;-59
2023/06/08 03:43:27;;;;;;;11.70;9.07;;;;;;;15.11;100.00;99949.75;5022923;28;20178;-60
2023/06/08 03:45:52;;;;;;;8.87;8.13;;;;;;;15.25;100.00;99948.69;5013500;28;20190;-60
2023/06/08 03:48:18;;;;;;;11.17;8.67;;;;;;;15.25;100.00;99951.28;5015258;28;20171;-60
2023/06/08 03:50:43;;;;;;;9.40;8.30;;;;;;;15.31;100.00;99950.81;5010821;28;20554;-60
2023/06/08 03:53:10;;;;;;;9.83;8.33;;;;;;;15.34;100.00;99953.16;5013856;28;20249;-60
2023/06/08 03:55:36;;;;;;;9.27;8.30;;;;;;;15.38;100.00;99949.41;5013692;28;20244;-60
2023/06/08 03:58:01;;;;;;;10.90;8.33;;;;;;;15.48;100.00;99952.13;5014968;28;20619;-60
2023/06/08 04:00:27;;;;;;;9.20;8.30;;;;;;;15.49;100.00;99952.00;5007675;28;20276;-60
2023/06/08 04:02:52;;;;;;;7.83;7.23;;;;;;;15.55;100.00;99952.47;5018344;28;20190;-60
2023/06/08 04:05:17;;;;;;;8.10;7.37;;;;;;;15.55;100.00;99953.25;5010618;28;20218;-60
2023/06/08 04:07:43;;;;;;;8.90;8.00;;;;;;;15.61;100.00;99951.97;5015328;28;20174;-60
2023/06/08 04:10:08;;;;;;;9.30;8.50;;;;;;;15.68;100.00;99947.13;5005419;28;20194;-61
2023/06/08 04:12:34;;;;;;;8.83;8.03;;;;;;;15.79;100.00;99949.72;5028900;28;20631;-60
2023/06/08 04:15:01;;;;;;;9.27;8.37;;;;;;;15.89;100.00;99960.19;5014088;28;20197;-61
2023/06/08 04:17:27;;;;;;;9.17;8.27;;;;;;;15.98;100.00;99959.47;5015065;28;20284;-61
2023/06/08 04:19:53;;;;;;;9.67;8.70;;;;;;;16.07;100.00;99957.91;5014829;28;20178;-60
2023/06/08 04:22:18;;;;;;;8.83;8.10;;;;;;;16.15;100.00;99958.16;5019903;28;20218;-60
2023/06/08 04:24:43;;;;;;;9.60;8.63;;;;;;;16.22;100.00;99958.47;5014547;28;20516;-60
2023/06/08 04:27:10;;;;;;;8.50;7.67;;;;;;;16.26;100.00;99957.25;5014287;28;20260;-60
2023/06/08 04:29:35;;;;;;;8.70;7.90;;;;;;;16.33;100.00;99952.41;5004481;28;20279;-60
2023/06/08 04:32:00;;;;;;;8.40;7.60;;;;;;;16.37;100.00;99948.59;5015824;28;20230;-60
2023/06/08 04:34:26;;;;;;;8.40;7.70;;;;;;;16.43;100.00;99951.53;5014503;28;20270;-61
2023/06/08 04:36:51;;;;;;;8.63;7.53;;;;;;;16.46;100.00;99953.06;5000979;28;20202;-60
2023/06/08 04:39:16;;;;;;;9.90;8.07;;;;;;;16.51;100.00;99958.69;5014732;28;20631;-60
2023/06/08 04:41:44;;;;;;;10.80;7.53;;;;;;;16.61;100.00;99954.38;5016862;28;20224;-60
2023/06/08 04:44:13;;;;;;;8.00;7.30;;;;;;;16.61;100.00;99949.19;5016972;28;20186;-60
2023/06/08 04:46:39;;;;;;;8.00;7.30;;;;;;;16.73;100.00;99956.91;5013891;28;20210;-60
2023/06/08 04:49:04;;;;;;;8.57;7.40;;;;;;;16.81;100.00;99948.47;5014322;28;20664;-60
2023/06/08 04:51:30;;;;;;;8.37;7.30;;;;;;;17.00;100.00;99953.00;5015223;28;20238;-60
2023/06/08 04:54:04;;;;;;;8.17;6.60;;;;;;;17.12;100.00;99951.97;5018435;28;20190;-60
2023/06/08 04:56:33;;;;;;;8.47;6.57;;;;;;;17.31;100.00;99955.63;5013310;28;20201;-60
2023/06/08 04:58:58;;;;;;;9.53;7.70;;;;;;;17.49;100.00;99954.03;5014168;28;20634;-59
2023/06/08 05:01:24;;;;;;;7.80;7.00;;;;;;;17.71;100.00;99957.38;5014216;28;20285;-60
2023/06/08 05:03:49;;;;;;;8.70;7.33;;;;;;;17.70;100.00;99956.56;5019144;28;20175;-60
2023/06/08 05:06:14;;;;;;;7.73;6.97;;;;;;;17.87;100.00;99954.25;5013219;28;20205;-61
2023/06/08 05:08:40;;;;;;;9.30;6.33;;;;;;;18.13;100.00;99957.19;5013944;28;20182;-60
2023/06/08 05:11:05;;;;;;;7.17;6.53;;;;;;;18.33;100.00;99954.59;5011757;28;20697;-60
2023/06/08 05:13:30;;;;;;;9.53;7.00;;;;;;;18.53;100.00;99952.78;5021104;28;20294;-60
2023/06/08 05:15:58;;;;;;;6.30;5.70;;;;;;;18.59;100.00;99956.63;5013271;28;20187;-60
2023/06/08 05:18:26;;;;;;;8.97;5.80;;;;;;;18.78;100.00;99950.56;5013863;28;20197;-61
2023/06/08 05:20:52;;;;;;;6.30;5.43;;;;;;;18.64;100.00;99954.41;5010275;28;20237;-61
2023/06/08 05:23:17;;;;;;;5.67;5.17;;;;;;;18.59;100.00;99946.22;5022896;28;20213;-62
2023/06/08 05:25:42;;;;;;;6.73;4.93;;;;;;;18.51;100.00;99955.53;5012929;28;20203;-61
2023/06/08 05:28:07;;;;;;;6.00;5.33;;;;;;;18.50;100.00;99958.28;5013897;28;20225;-60
2023/06/08 05:30:33;;;;;;;5.73;5.33;;;;;;;18.66;100.00;99957.72;4994118;28;20280;-61
2023/06/08 05:33:00;;;;;;;6.43;5.43;;;;;;;18.93;100.00;99953.56;5024964;28;20187;-60
2023/06/08 05:35:25;;;;;;;5.73;5.07;;;;;;;18.77;100.00;99954.94;5012908;28;20197;-60
2023/06/08 05:37:50;;;;;;;8.13;5.43;;;;;;;19.01;100.00;99946.69;5012334;28;20634;-61
2023/06/08 05:40:17;;;;;;;5.90;5.27;;;;;;;19.19;100.00;99946.75;5004601;28;20209;-61
2023/06/08 05:42:42;;;;;;;10.50;5.10;;;;;;;19.27;100.00;99950.44;5027002;28;20267;-60
2023/06/08 05:45:08;;;;;;;5.93;5.33;;;;;;;19.34;100.00;99943.69;5012803;28;20274;-61
2023/06/08 05:47:33;;;;;;;5.30;4.80;;;;;;;19.30;100.00;99950.13;5013763;28;20614;-61
2023/06/08 05:49:58;;;;;;;5.50;5.07;;;;;;;19.59;100.00;99947.38;5013044;28;20186;-60
2023/06/08 05:52:24;;;;;;;5.93;4.97;;;;;;;19.53;100.00;99945.38;5018176;28;20253;-61
2023/06/08 05:54:50;;;;;;;6.90;5.10;;;;;;;19.43;100.00;99950.63;5012693;28;20552;-61
2023/06/08 05:57:15;;;;;;;5.43;4.93;;;;;;;19.71;100.00;99950.63;5012660;28;20218;-60
2023/06/08 05:59:41;;;;;;;6.77;5.23;;;;;;;20.00;100.00;99952.25;5013001;28;20206;-61
2023/06/08 06:02:06;;;;;;;6.23;5.13;;;;;;;20.20;100.00;99942.47;5018330;28;20265;-60
2023/06/08 06:04:31;;;;;;;8.83;5.10;;;;;;;20.36;100.00;99954.03;5012686;28;20186;-60
2023/06/08 06:06:57;;;;;;;7.53;4.73;;;;;;;20.61;100.00;99947.19;5012424;28;20206;-61
2023/06/08 06:09:22;;;;;;;5.33;4.63;;;;;;;20.61;100.00;99952.41;5012702;28;20194;-61
2023/06/08 06:11:47;;;;;;;5.53;4.97;;;;;;;19.95;100.00;99952.69;5016033;28;20246;-60
2023/06/08 06:14:13;;;;;;;6.47;4.90;;;;;;;19.68;100.00;99956.13;5014508;28;20179;-61
2023/06/08 06:16:39;;;;;;;8.60;5.73;;;;;;;19.45;100.00;99955.69;5012223;28;20198;-60
2023/06/08 06:19:04;;;;;;;5.93;5.27;;;;;;;19.33;100.00;99958.50;5012677;28;20202;-60
2023/06/08 06:21:29;;;;;;;6.27;5.63;;;;;;;19.42;100.00;99961.22;5013639;28;20712;-60
2023/06/08 06:23:55;;;;;;;4.77;4.37;;;;;;;19.11;100.00;99956.25;5016473;28;20206;-60
2023/06/08 06:26:20;;;;;;;5.37;4.87;;;;;;;18.94;100.00;99960.41;5011993;28;20291;-60
2023/06/08 06:28:45;;;;;;;7.73;5.00;;;;;;;18.86;100.00;99961.09;5012543;28;20205;-60
2023/06/08 06:31:10;;;;;;;5.60;5.10;;;;;;;18.86;100.00;99966.31;5011350;28;20252;-60
2023/06/08 06:33:36;;;;;;;6.10;5.33;;;;;;;18.81;100.00;99968.53;5019024;28;20200;-59
2023/06/08 06:36:01;;;;;;;5.63;5.17;;;;;;;18.63;100.00;99973.63;5012129;28;20225;-60
2023/06/08 06:38:27;;;;;;;6.27;5.73;;;;;;;18.49;100.00;99964.44;5012200;28;20179;-60
2023/06/08 06:40:52;;;;;;;6.20;5.60;;;;;;;18.48;100.00;99968.00;5008784;28;20667;-60
2023/06/08 06:43:21;;;;;;;8.80;5.60;;;;;;;18.60;100.00;99969.50;5021386;28;20175;-60
2023/06/08 06:45:50;;;;;;;6.77;5.60;;;;;;;18.57;100.00;99971.56;5012078;28;20286;-60
2023/06/08 06:48:19;;;;;;;6.03;5.53;;;;;;;18.68;100.00;99974.00;5012198;28;20196;-60
2023/06/08 06:50:44;;;;;;;6.53;5.93;;;;;;;18.73;100.00;99981.41;5007604;28;20240;-60
2023/06/08 06:53:09;;;;;;;6.47;5.17;;;;;;;18.98;100.00;99978.25;5022005;28;20179;-60
2023/06/08 06:55:35;;;;;;;6.07;5.20;;;;;;;19.44;100.00;99975.75;5011627;28;20218;-60
2023/06/08 06:58:02;;;;;;;6.33;5.27;;;;;;;20.06;100.00;99980.38;5012002;28;20517;-60
2023/06/08 07:00:29;;;;;;;6.07;5.47;;;;;;;20.71;100.00;99981.91;4991982;28;20618;-60
2023/06/08 07:02:55;;;;;;;6.53;5.60;;;;;;;21.37;100.00;99977.06;5011099;28;20175;-60
2023/06/08 07:05:20;;;;;;;6.03;5.07;;;;;;;22.86;98.58;99978.13;5011658;28;20182;-60
2023/06/08 07:07:45;;;;;;;7.57;4.57;;;;;;;25.98;79.60;99979.41;5012001;28;20677;-61
2023/06/08 07:10:11;;;;;;;5.00;4.50;;;;;;;26.63;70.05;99987.28;5003413;28;20189;-61
2023/06/08 07:12:36;;;;;;;6.05;4.85;;;;;;;26.87;64.69;99984.22;5012971;28;20232;-61
2023/06/08 07:15:01;;;;;;;5.03;4.47;;;;;;;26.75;69.65;99985.78;5011693;28;20221;-61
2023/06/08 07:17:26;;;;;;;5.38;4.75;;;;;;;27.95;62.54;99977.56;5016595;28;20237;-61
2023/06/08 07:19:53;;;;;;;4.88;4.47;;;;;;;26.99;64.71;99976.59;5012083;28;20265;-61
2023/06/08 07:22:18;;;;;;;5.72;4.03;;;;;;;28.61;56.26;99980.44;5016812;28;20312;-61
2023/06/08 07:24:43;;;;;;;6.07;4.75;;;;;;;28.71;53.89;99978.22;5012102;28;20222;-61
2023/06/08 07:27:09;;;;;;;5.50;4.68;;;;;;;27.93;56.77;99974.28;5011528;28;20253;-61
2023/06/08 07:29:34;;;;;;;7.30;4.35;;;;;;;27.54;61.52;99979.28;5010565;28;20182;-61
2023/06/08 07:31:59;;;;;;;7.43;4.60;;;;;;;26.86;64.04;99979.94;4980517;28;20265;-61
2023/06/08 07:34:26;;;;;;;6.38;4.43;;;;;;;27.08;63.81;99981.69;5011473;28;20269;-61
2023/06/08 07:36:51;;;;;;;5.10;4.60;;;;;;;26.69;67.02;99987.34;5011380;28;20635;-61
2023/06/08 07:39:16;;;;;;;6.40;4.90;;;;;;;26.82;66.39;99988.47;5011889;28;20191;-60
2023/06/08 07:41:42;;;;;;;5.75;5.25;;;;;;;28.72;56.36;99990.44;5014146;28;20303;-61
2023/06/08 07:44:07;;;;;;;7.43;5.25;;;;;;;27.98;57.46;99985.09;5014525;28;20218;-61
2023/06/08 07:46:32;;;;;;;5.05;4.50;;;;;;;28.07;57.85;99985.75;5010743;28;20548;-61
2023/06/08 07:48:57;;;;;;;7.22;5.25;;;;;;;29.28;52.33;99981.09;5011922;28;20183;-60
2023/06/08 07:51:22;;;;;;;7.47;5.00;;;;;;;30.20;47.93;99985.31;5011701;28;20230;-61
2023/06/08 07:53:48;;;;;;;4.95;4.55;;;;;;;30.66;46.04;99980.66;5016891;28;20701;-61
2023/06/08 07:56:13;;;;;;;5.85;4.32;;;;;;;29.82;47.38;99983.53;5010923;28;20181;-62
2023/06/08 07:58:38;;;;;;;4.70;4.30;;;;;;;29.61;47.93;99982.81;5011837;28;20198;-61
2023/06/08 08:01:04;;;;;;;5.05;4.57;;;;;;;28.74;52.47;99983.13;5009438;28;20293;-61
2023/06/08 08:03:29;;;;;;;6.07;4.63;;;;;;;29.20;51.15;99991.13;5019053;28;20573;-60
2023/06/08 08:05:55;;;;;;;4.95;4.50;;;;;;;28.38;53.79;99994.09;5010868;28;20199;-60
2023/06/08 08:08:20;;;;;;;5.47;4.85;;;;;;;27.91;57.44;99997.47;4994001;28;20230;-60
2023/06/08 08:10:47;;;;;;;6.13;4.70;;;;;;;28.05;57.34;99990.41;5007011;28;20221;-60
2023/06/08 08:13:12;;;;;;;5.25;4.43;;;;;;;28.87;51.17;99992.03;5024617;28;20230;-59
2023/06/08 08:15:41;;;;;;;4.68;4.35;;;;;;;29.06;51.44;99990.34;5014387;28;20247;-61
2023/06/08 08:18:06;;;;;;;6.95;4.40;;;;;;;29.13;49.48;99994.59;5014857;28;20228;-60
2023/06/08 08:20:32;;;;;;;5.57;4.25;;;;;;;29.90;46.61;99987.78;5008449;28;20260;-61
2023/06/08 08:22:57;;;;;;;5.10;4.60;;;;;;;30.03;44.88;99994.81;5026294;28;20262;-60
2023/06/08 08:25:22;;;;;;;4.40;4.10;;;;;;;29.06;47.96;99993.00;5014196;28;20273;-60
2023/06/08 08:27:47;;;;;;;6.32;4.53;;;;;;;28.67;51.77;99990.22;5014980;28;20187;-60
2023/06/08 08:30:13;;;;;;;6.55;4.78;;;;;;;29.06;50.94;99993.00;5005584;28;20270;-61
2023/06/08 08:32:39;;;;;;;6.97;4.85;;;;;;;29.63;46.69;99985.25;5028476;28;20179;-61
2023/06/08 08:35:05;;;;;;;6.10;5.10;;;;;;;30.64;43.37;99998.66;5014051;28;20194;-60
2023/06/08 08:37:31;;;;;;;6.10;4.60;;;;;;;31.36;41.30;99984.81;5014442;28;20193;-60
2023/06/08 08:39:56;;;;;;;4.95;4.47;;;;;;;31.46;40.38;99984.28;5014360;28;20215;-60
2023/06/08 08:42:26;;;;;;;6.07;4.93;;;;;;;30.94;41.53;99992.63;5019875;28;20253;-61
2023/06/08 08:44:56;;;;;;;4.75;4.35;;;;;;;31.23;41.14;99991.09;5014398;28;20187;-60
2023/06/08 08:47:29;;;;;;;6.07;4.93;;;;;;;29.55;45.02;99991.63;5013895;28;20600;-60
2023/06/08 08:50:06;;;;;;;6.65;4.50;;;;;;;29.27;48.44;99986.63;5014100;28;20213;-60
2023/06/08 08:52:33;;;;;;;5.57;5.10;;;;;;;29.40;48.85;99986.59;5003167;28;21112;-60
2023/06/08 08:55:02;;;;;;;5.30;4.80;;;;;;;30.04;45.30;99978.72;5013823;28;20703;-62
2023/06/08 08:57:28;;;;;;;4.72;4.32;;;;;;;29.49;47.75;99975.75;5014312;28;20197;-60
2023/06/08 08:59:54;;;;;;;6.05;4.68;;;;;;;29.53;46.69;99982.25;5013882;28;20179;-60
2023/06/08 09:02:19;;;;;;;5.90;5.03;;;;;;;29.81;46.50;99975.75;5018782;28;20353;-60
2023/06/08 09:04:45;;;;;;;5.63;4.90;;;;;;;30.36;45.02;99983.16;5014298;28;20190;-60
2023/06/08 09:07:10;;;;;;;6.10;5.45;;;;;;;30.42;43.54;99971.66;5013475;28;20649;-59
2023/06/08 09:09:35;;;;;;;4.95;4.65;;;;;;;30.84;42.36;99979.06;5013855;28;20258;-59
2023/06/08 09:12:03;;;;;;;5.72;4.82;;;;;;;30.23;43.06;99984.88;5005547;28;20237;-59
2023/06/08 09:14:29;;;;;;;5.22;4.78;;;;;;;30.57;43.96;99976.66;5013564;28;20190;-60
2023/06/08 09:16:55;;;;;;;5.75;4.90;;;;;;;29.98;44.94;99978.75;5012849;28;20528;-60
2023/06/08 09:19:22;;;;;;;6.18;5.10;;;;;;;29.94;45.99;99981.03;5013574;28;20186;-59
2023/06/08 09:21:48;;;;;;;7.47;5.25;;;;;;;29.84;45.65;99970.06;5017016;28;20693;-60
2023/06/08 09:27:37;;;;;;;4.72;4.20;;;;;;;31.35;42.98;99977.06;5002155;28;20262;-60
2023/06/08 09:30:21;;;;;;;6.43;4.80;;;;;;;32.06;40.87;99969.31;5007804;28;20194;-61
2023/06/08 09:32:46;;;;;;;5.65;5.10;;;;;;;30.73;42.30;99964.66;5026209;28;20680;-59
2023/06/08 09:35:12;;;;;;;6.15;5.20;;;;;;;30.04;46.26;99964.63;5012913;28;20210;-59
2023/06/08 09:37:41;;;;;;;5.63;5.05;;;;;;;31.68;42.20;99955.38;5013493;28;20195;-59
2023/06/08 09:40:09;;;;;;;4.97;4.50;;;;;;;32.02;40.65;99963.63;5003777;28;20194;-61
2023/06/08 09:42:42;;;;;;;6.50;5.28;;;;;;;30.49;43.21;99969.81;5027704;28;20198;-60
2023/06/08 09:45:10;;;;;;;5.95;5.45;;;;;;;31.43;43.06;99952.00;5012749;28;20256;-60
2023/06/08 09:47:36;;;;;;;5.80;5.32;;;;;;;30.79;44.36;99957.66;5013372;28;20522;-60
2023/06/08 09:50:01;;;;;;;7.13;5.22;;;;;;;30.26;45.75;99952.59;5012930;28;20179;-60
2023/06/08 09:52:31;;;;;;;7.22;5.43;;;;;;;31.28;43.09;99947.09;5001509;28;20223;-61
2023/06/08 09:54:56;;;;;;;5.60;5.10;;;;;;;30.49;44.62;99948.56;5012988;28;20627;-60
2023/06/08 09:57:22;;;;;;;5.22;4.82;;;;;;;29.92;47.29;99949.41;5011432;28;20420;-60
2023/06/08 09:59:55;;;;;;;7.00;5.40;;;;;;;30.27;47.62;99945.47;5013007;28;20682;-60
2023/06/08 10:02:29;;;;;;;5.78;4.93;;;;;;;30.86;44.11;99945.13;5017978;28;20229;-60
2023/06/08 10:04:58;;;;;;;5.75;5.25;;;;;;;30.90;44.25;99941.00;5010317;28;20257;-60
2023/06/08 10:07:29;;;;;;;7.25;6.10;;;;;;;30.88;44.95;99943.84;4999798;28;20222;-62
2023/06/08 10:10:05;;;;;;;6.43;5.80;;;;;;;30.25;45.21;99947.53;4999531;28;20194;-60
2023/06/08 10:12:31;;;;;;;6.80;5.53;;;;;;;30.64;45.67;99937.59;5001020;28;20627;-60
2023/06/08 10:14:57;;;;;;;7.95;5.47;;;;;;;31.19;44.01;99934.13;5012588;28;20183;-61
2023/06/08 10:17:23;;;;;;;5.45;4.97;;;;;;;30.60;46.17;99933.75;5012288;28;20202;-61
2023/06/08 10:19:50;;;;;;;5.95;5.43;;;;;;;32.01;41.53;99927.44;5012946;28;20185;-60
2023/06/08 10:22:17;;;;;;;6.22;5.68;;;;;;;30.92;44.22;99930.94;5017638;28;20639;-60
2023/06/08 10:24:45;;;;;;;5.82;5.32;;;;;;;30.27;47.73;99929.56;5012698;28;20202;-60
2023/06/08 10:27:17;;;;;;;6.45;5.85;;;;;;;31.21;44.64;99920.63;5012186;28;20206;-61
2023/06/08 10:29:56;;;;;;;5.88;5.28;;;;;;;32.63;40.42;99914.72;5001043;28;20180;-61
2023/06/08 10:32:42;;;;;;;6.07;5.47;;;;;;;30.98;43.18;99921.31;5017476;28;20218;-60
2023/06/08 10:35:10;;;;;;;5.63;4.90;;;;;;;30.54;45.27;99924.84;5011818;28;20240;-60
2023/06/08 10:37:36;;;;;;;6.63;5.97;;;;;;;31.20;44.39;99917.16;5012245;28;20582;-60
2023/06/08 10:40:09;;;;;;;5.53;5.10;;;;;;;31.33;41.71;99918.00;5010199;28;20662;-60
2023/06/08 10:42:34;;;;;;;7.13;5.10;;;;;;;28.94;47.97;99916.88;5010302;28;20229;-61
2023/06/08 10:45:02;;;;;;;5.72;5.22;;;;;;;28.26;51.16;99907.44;5011476;28;20210;-60
2023/06/08 10:47:31;;;;;;;6.03;5.20;;;;;;;27.52;58.85;99898.63;5012099;28;20662;-60
2023/06/08 10:50:01;;;;;;;6.38;5.88;;;;;;;26.93;60.97;99900.00;5011836;28;20593;-61
2023/06/08 10:52:27;;;;;;;7.82;5.85;;;;;;;26.55;64.15;99888.03;5001059;28;20238;-61
2023/06/08 10:55:05;;;;;;;5.60;5.13;;;;;;;26.14;69.23;99899.31;5011696;28;20225;-61
2023/06/08 10:57:43;;;;;;;6.40;5.90;;;;;;;26.42;68.85;99884.28;5012054;28;20182;-62
2023/06/08 11:00:22;;;;;;;7.20;5.18;;;;;;;26.67;67.73;99880.34;4980765;28;20501;-61
2023/06/08 11:02:49;;;;;;;6.43;5.85;;;;;;;26.18;71.17;99882.09;5010750;28;20645;-61
2023/06/08 11:05:15;;;;;;;6.70;6.10;;;;;;;25.86;74.98;99877.16;5011140;28;20186;-60
2023/06/08 11:07:41;;;;;;;8.27;5.63;;;;;;;25.89;73.63;99878.59;5011904;28;20626;-60
2023/06/08 11:10:06;;;;;;;6.45;5.68;;;;;;;26.00;76.53;99877.25;5002389;28;20201;-61
2023/06/08 11:12:31;;;;;;;6.50;5.38;;;;;;;26.08;73.79;99874.50;5026017;28;20226;-60
2023/06/08 11:14:58;;;;;;;6.43;5.93;;;;;;;26.18;73.52;99874.19;5011596;28;20256;-61
2023/06/08 11:17:23;;;;;;;6.57;5.43;;;;;;;26.24;72.22;99858.41;5017196;28;20559;-59
2023/06/08 11:19:49;;;;;;;6.13;5.35;;;;;;;26.26;74.45;99871.41;5011978;28;20229;-60
2023/06/08 11:22:14;;;;;;;6.03;5.43;;;;;;;26.19;72.04;99860.81;5012890;28;20237;-60
2023/06/08 11:24:42;;;;;;;6.57;6.00;;;;;;;26.46;71.81;99852.25;5002755;28;20202;-60
2023/06/08 11:27:07;;;;;;;7.40;6.57;;;;;;;26.49;70.56;99849.25;5011309;28;20658;-60
2023/06/08 11:29:33;;;;;;;7.00;6.35;;;;;;;26.05;73.30;99851.97;5002155;28;20238;-60
2023/06/08 11:32:11;;;;;;;9.55;6.45;;;;;;;25.50;77.29;99845.63;4979098;28;20222;-60